Terminal Aerodrome Forecast
Issued by NWS Pueblo, CO

Home | Current Version | Previous Version | Text Only | Print | Product List | Glossary On
Versions: 1 2 3 4 5 6 7 8 9 10 11 12 13 14 15 16 17 18 19 20 21
000
FTUS45 KPUB 281732
TAFALS
TAF
KALS 281732Z 2818/2918 35008KT P6SM VCSH SCT040 SCT080
      TEMPO 2820/2824 5SM -SHRA BKN040
     FM290000 06008KT 4SM -SHRA BR OVC020
     FM290300 04014KT 2SM -SHSN BR OVC010
     FM290800 03015G25KT 3SM -SHSN BR OVC020
     FM291600 36015G30KT P6SM BKN080=

USA.gov is the U.S. government's official web portal to all federal, state and local government web resources and services.